createdAt,value
2017-08-15T00:00:13.976Z,109.3
2017-08-15T00:01:13.167Z,109.3
2017-08-15T00:02:12.353Z,109.2
2017-08-15T00:03:11.922Z,109.2
2017-08-15T00:04:10.900Z,109.2
2017-08-15T00:05:09.975Z,109
2017-08-15T00:06:09.430Z,108.9
2017-08-15T00:07:08.631Z,109
2017-08-15T00:08:07.757Z,108.9
2017-08-15T00:09:07.216Z,109.1
2017-08-15T00:10:06.287Z,109.1
2017-08-15T00:11:05.472Z,109.3
2017-08-15T00:12:04.674Z,109.2
2017-08-15T00:13:04.248Z,109.4
2017-08-15T00:14:03.325Z,109.1
2017-08-15T00:15:02.517Z,109
2017-08-15T00:16:02.103Z,109.3
2017-08-15T00:17:01.288Z,108.9
2017-08-15T00:18:00.482Z,109.1
2017-08-15T00:18:59.681Z,109.1
2017-08-15T00:19:58.632Z,109.2
2017-08-15T00:20:57.829Z,109.3
2017-08-15T00:21:57.534Z,109.1
2017-08-15T00:22:56.615Z,109.1
2017-08-15T00:23:55.804Z,109.3
2017-08-15T00:24:55.001Z,109.1
2017-08-15T00:25:54.190Z,109
2017-08-15T00:26:24.581Z,109
2017-08-15T00:27:52.891Z,109.1
2017-08-15T00:28:52.081Z,108.7
2017-08-15T00:29:51.415Z,108.7
2017-08-15T00:30:50.258Z,108.9
2017-08-15T00:31:49.944Z,108.8
2017-08-15T00:32:48.901Z,108.5
2017-08-15T00:33:47.853Z,108.4
2017-08-15T00:34:47.429Z,108.6
2017-08-15T00:35:46.501Z,108.5
2017-08-15T00:36:46.083Z,108.3
2017-08-15T00:37:16.475Z,108.3
2017-08-15T00:38:44.361Z,108.4
2017-08-15T00:39:43.566Z,108.2
2017-08-15T00:40:42.629Z,108.2
2017-08-15T00:41:42.202Z,108.3
2017-08-15T00:42:41.269Z,108.1
2017-08-15T00:43:40.463Z,107.9
2017-08-15T00:44:39.646Z,107.9
2017-08-15T00:45:39.337Z,108
2017-08-15T00:46:38.411Z,107.9
2017-08-15T00:47:37.595Z,108
2017-08-15T00:48:36.796Z,108.1
2017-08-15T00:49:36.001Z,108.2
2017-08-15T00:50:35.190Z,108
2017-08-15T00:51:34.389Z,108.1
2017-08-15T00:52:33.595Z,108.2
2017-08-15T00:53:32.800Z,108.1
2017-08-15T00:54:32.382Z,108
2017-08-15T00:55:31.575Z,108.5
2017-08-15T00:56:30.649Z,108.3
2017-08-15T00:57:29.846Z,108
2017-08-15T00:58:29.427Z,108.1
2017-08-15T00:59:28.624Z,107.9
2017-08-15T01:00:27.705Z,107.8
2017-08-15T01:01:26.906Z,108
2017-08-15T01:02:25.981Z,108.3
2017-08-15T01:03:25.187Z,108.3
2017-08-15T01:04:24.645Z,108.2
2017-08-15T01:05:23.716Z,108.1
2017-08-15T01:06:23.298Z,108.2
2017-08-15T01:07:22.250Z,108.5
2017-08-15T01:08:21.447Z,108.5
2017-08-15T01:09:21.038Z,108.4
2017-08-15T01:10:20.241Z,108.2
2017-08-15T01:11:19.434Z,108.3
2017-08-15T01:12:18.634Z,108.4
2017-08-15T01:13:17.705Z,108.4
2017-08-15T01:14:16.890Z,108.4
2017-08-15T01:15:16.468Z,108.4
2017-08-15T01:15:46.955Z,108.4
2017-08-15T01:16:17.347Z,108.3
2017-08-15T01:16:47.849Z,108.3
2017-08-15T01:17:18.229Z,108.5
2017-08-15T01:17:48.744Z,108.5
2017-08-15T01:18:19.248Z,108.5
2017-08-15T01:18:49.395Z,108.5
2017-08-15T01:19:19.889Z,108.7
2017-08-15T01:19:50.539Z,108.7
2017-08-15T01:21:11.767Z,108.5
2017-08-15T01:22:10.723Z,108.6
2017-08-15T01:23:10.295Z,108.3
2017-08-15T01:24:09.254Z,108.3
2017-08-15T01:25:08.831Z,108.2
2017-08-15T01:26:07.921Z,108.1
2017-08-15T01:27:07.108Z,108.1
2017-08-15T01:28:06.172Z,108
2017-08-15T01:29:05.519Z,108.2
2017-08-15T01:29:36.034Z,108.2
2017-08-15T01:31:03.922Z,108.3
2017-08-15T01:32:03.110Z,108.3
2017-08-15T01:34:01.598Z,108.4
2017-08-15T01:35:01.064Z,108.2
2017-08-15T01:36:00.260Z,108.6
2017-08-15T01:36:59.446Z,108.6
2017-08-15T01:37:58.641Z,108.4
2017-08-15T01:38:57.838Z,108.4
2017-08-15T01:39:56.944Z,108.2
2017-08-15T01:40:56.146Z,108
2017-08-15T01:41:55.723Z,108.1
2017-08-15T01:42:54.921Z,108.1
2017-08-15T01:43:54.155Z,108.4
2017-08-15T01:44:53.108Z,108.3
2017-08-15T01:45:52.314Z,108.4
2017-08-15T01:46:51.504Z,108.5
2017-08-15T01:47:22.007Z,108.5
2017-08-15T01:47:52.500Z,108.7
2017-08-15T01:48:23.010Z,108.7
2017-08-15T01:48:53.507Z,108.8
2017-08-15T01:49:24.016Z,108.8
2017-08-15T01:50:48.876Z,109.2
2017-08-15T01:51:48.063Z,109
2017-08-15T01:52:47.145Z,109.1
2017-08-15T01:53:46.331Z,109.1
2017-08-15T01:54:45.522Z,109.4
2017-08-15T01:55:44.604Z,109.7
2017-08-15T01:56:43.813Z,109.6
2017-08-15T01:57:43.504Z,110
2017-08-15T01:58:42.699Z,109.7
2017-08-15T01:59:41.888Z,110.1
2017-08-15T02:00:41.085Z,110.6
2017-08-15T02:01:40.280Z,110.4
2017-08-15T02:02:39.471Z,110.3
2017-08-15T02:03:38.667Z,110.4
2017-08-15T02:04:37.868Z,110.7
2017-08-15T02:05:37.068Z,110.8
2017-08-15T02:06:36.146Z,110.7
2017-08-15T02:07:35.336Z,110.9
2017-08-15T02:08:34.909Z,110.9
2017-08-15T02:09:05.289Z,110.9
2017-08-15T02:09:35.566Z,110.7
2017-08-15T02:10:06.073Z,110.7
2017-08-15T02:10:36.353Z,110.7
2017-08-15T02:11:32.515Z,110.8
2017-08-15T02:12:31.708Z,110.6
2017-08-15T02:13:30.900Z,110.5
2017-08-15T02:14:30.098Z,110.5
2017-08-15T02:15:29.179Z,110.6
2017-08-15T02:16:28.753Z,110.7
2017-08-15T02:17:27.966Z,110.7
2017-08-15T02:18:27.047Z,110.8
2017-08-15T02:19:26.005Z,110.5
2017-08-15T02:20:25.590Z,110.4
2017-08-15T02:21:24.550Z,111
2017-08-15T02:22:23.729Z,111
2017-08-15T02:23:23.293Z,110.9
2017-08-15T02:24:22.110Z,111
2017-08-15T02:24:52.758Z,111
2017-08-15T02:25:23.262Z,111.4
2017-08-15T02:26:20.823Z,111.4
2017-08-15T02:27:20.276Z,111.5
2017-08-15T02:28:19.478Z,111.8
2017-08-15T02:29:18.545Z,111.4
2017-08-15T02:30:17.727Z,111.5
2017-08-15T02:31:16.798Z,111.5
2017-08-15T02:32:16.377Z,111.4
2017-08-15T02:33:15.511Z,111.3
2017-08-15T02:34:14.694Z,111.3
2017-08-15T02:35:13.769Z,111.3
2017-08-15T02:36:12.964Z,111.8
2017-08-15T02:37:12.169Z,111.8
2017-08-15T02:38:11.242Z,112.2
2017-08-15T02:39:10.818Z,112.2
2017-08-15T02:40:10.000Z,112.1
2017-08-15T02:41:09.192Z,111.9
2017-08-15T02:42:08.268Z,111.6
2017-08-15T02:43:07.336Z,112.2
2017-08-15T02:44:07.012Z,112.1
2017-08-15T02:45:06.000Z,112.2
2017-08-15T02:46:05.181Z,112.2
2017-08-15T02:47:04.353Z,112.8
2017-08-15T02:48:03.419Z,113.1
2017-08-15T02:49:02.991Z,112.7
2017-08-15T02:50:02.151Z,112.7
2017-08-15T02:51:01.096Z,112.4
2017-08-15T02:52:00.782Z,112.4
2017-08-15T02:52:59.860Z,112.6
2017-08-15T02:53:59.048Z,112.6
2017-08-15T02:54:58.238Z,112.7
2017-08-15T02:55:57.416Z,112.7
2017-08-15T02:56:56.619Z,112.7
2017-08-15T02:57:55.685Z,112.6
2017-08-15T02:58:54.868Z,112.8
2017-08-15T02:59:54.451Z,113.1
2017-08-15T03:00:53.521Z,112.8
2017-08-15T03:01:52.738Z,112.8
2017-08-15T03:02:51.796Z,112.7
2017-08-15T03:03:50.993Z,113.2
2017-08-15T03:04:21.246Z,113.2
2017-08-15T03:04:51.752Z,112.9
2017-08-15T03:05:22.422Z,112.9
2017-08-15T03:06:48.549Z,113
2017-08-15T03:07:48.111Z,112.8
2017-08-15T03:08:47.174Z,113.1
2017-08-15T03:09:46.248Z,113.3
2017-08-15T03:10:45.432Z,113.3
2017-08-15T03:11:44.614Z,113.3
2017-08-15T03:12:44.300Z,113.1
2017-08-15T03:13:43.518Z,113
2017-08-15T03:14:42.708Z,113.1
2017-08-15T03:15:41.784Z,113.2
2017-08-15T03:16:12.277Z,113.2
2017-08-15T03:16:42.534Z,113.1
2017-08-15T03:17:12.914Z,113.1
2017-08-15T03:17:43.415Z,113.4
2017-08-15T03:18:13.797Z,113.4
2017-08-15T03:19:38.660Z,114.3
2017-08-15T03:20:37.852Z,113.9
2017-08-15T03:21:36.813Z,113.8
2017-08-15T03:23:35.268Z,114.3
2017-08-15T03:24:34.464Z,114.3
2017-08-15T03:25:34.038Z,113.8
2017-08-15T03:26:33.094Z,114.8
2017-08-15T03:27:32.461Z,114.5
2017-08-15T03:29:30.799Z,114.1
2017-08-15T03:30:29.995Z,114
2017-08-15T03:31:29.200Z,114.2
2017-08-15T03:32:28.401Z,114.1
2017-08-15T03:33:27.585Z,114.1
2017-08-15T03:34:26.640Z,114.7
2017-08-15T03:34:57.136Z,114.7
2017-08-15T03:35:27.632Z,114.3
2017-08-15T03:35:58.030Z,114.3
2017-08-15T03:37:24.287Z,114.8
2017-08-15T03:38:23.472Z,115.1
2017-08-15T03:39:23.053Z,115.4
2017-08-15T03:40:22.124Z,115.3
2017-08-15T03:41:21.197Z,115
2017-08-15T03:42:20.387Z,114.8
2017-08-15T03:43:19.571Z,114.8
2017-08-15T03:44:18.635Z,114.7
2017-08-15T03:45:17.827Z,114.6
2017-08-15T03:46:17.515Z,114.8
2017-08-15T03:47:16.575Z,114.8
2017-08-15T03:48:15.656Z,114.9
2017-08-15T03:49:14.846Z,115.6
2017-08-15T03:50:14.613Z,115.4
2017-08-15T03:51:13.572Z,115.1
2017-08-15T03:52:12.632Z,115.6
2017-08-15T03:53:11.458Z,115.7
2017-08-15T03:54:11.046Z,115.7
2017-08-15T03:55:10.237Z,116.1
2017-08-15T03:56:09.406Z,115.7
2017-08-15T03:56:39.788Z,115.7
2017-08-15T03:57:10.276Z,115.4
2017-08-15T03:57:40.764Z,115.4
2017-08-15T03:58:11.261Z,115.6
2017-08-15T03:59:06.963Z,116
2017-08-15T04:00:06.179Z,115.9
2017-08-15T04:01:05.356Z,115.6
2017-08-15T04:02:04.545Z,115.5
2017-08-15T04:03:03.729Z,116.2
2017-08-15T04:04:02.795Z,116.3
2017-08-15T04:05:02.379Z,116.5
2017-08-15T04:06:01.336Z,116.3
2017-08-15T04:07:00.520Z,116.1
2017-08-15T04:07:59.614Z,116.5
2017-08-15T04:08:59.268Z,116.2
2017-08-15T04:09:58.458Z,116
2017-08-15T04:10:57.544Z,116.1
2017-08-15T04:11:56.611Z,115.7
2017-08-15T04:12:55.808Z,116.2
2017-08-15T04:13:54.988Z,116.2
2017-08-15T04:14:54.068Z,116.1
2017-08-15T04:15:53.246Z,115.9
2017-08-15T04:17:52.068Z,115.9
2017-08-15T04:18:50.899Z,116
2017-08-15T04:19:50.510Z,116.1
2017-08-15T04:20:49.577Z,115.9
2017-08-15T04:22:47.673Z,115.8
2017-08-15T04:23:47.239Z,115.7
2017-08-15T04:24:46.426Z,115.6
2017-08-15T04:25:45.509Z,115.9
2017-08-15T04:26:44.590Z,115.8
2017-08-15T04:27:44.170Z,115.8
2017-08-15T04:28:43.352Z,115.9
2017-08-15T04:29:42.541Z,115.6
2017-08-15T04:30:41.728Z,115.6
2017-08-15T04:31:40.676Z,115.7
2017-08-15T04:32:39.866Z,116.3
2017-08-15T04:33:39.058Z,115.9
2017-08-15T04:34:38.121Z,116.3
2017-08-15T04:35:37.200Z,116.4
2017-08-15T04:36:36.775Z,116.2
2017-08-15T04:37:35.953Z,116.4
2017-08-15T04:38:35.141Z,116.7
2017-08-15T04:39:34.320Z,116.5
2017-08-15T04:40:33.392Z,117
2017-08-15T04:41:32.574Z,116.7
2017-08-15T04:42:31.710Z,116.8
2017-08-15T04:43:02.474Z,116.8
2017-08-15T04:44:30.232Z,116.5
2017-08-15T04:45:29.425Z,116.3
2017-08-15T04:46:28.892Z,116.4
2017-08-15T04:47:28.074Z,116.3
2017-08-15T04:48:27.154Z,116.5
2017-08-15T04:49:26.222Z,116.3
2017-08-15T04:50:25.300Z,116.4
2017-08-15T04:51:24.875Z,116.4
2017-08-15T04:52:23.934Z,116.9
2017-08-15T04:53:23.126Z,117.1
2017-08-15T04:54:22.199Z,117
2017-08-15T04:55:21.389Z,117
2017-08-15T04:56:20.580Z,117.1
2017-08-15T04:57:19.773Z,117
2017-08-15T04:58:19.339Z,117
2017-08-15T04:59:18.520Z,117.1
2017-08-15T05:00:17.715Z,117.4
2017-08-15T05:01:16.901Z,117.4
2017-08-15T05:02:16.085Z,117.7
2017-08-15T05:03:15.266Z,117.7
2017-08-15T05:03:45.766Z,117.7
2017-08-15T05:04:16.133Z,117.7
2017-08-15T05:04:46.541Z,117.7
2017-08-15T05:06:12.916Z,117.8
2017-08-15T05:07:12.106Z,117.9
2017-08-15T05:08:11.293Z,117.8
2017-08-15T05:09:10.238Z,118
2017-08-15T05:11:08.704Z,117.4
2017-08-15T05:12:07.763Z,117.4
2017-08-15T05:13:06.952Z,117.6
2017-08-15T05:14:06.015Z,117.3
2017-08-15T05:15:05.605Z,117.2
2017-08-15T05:16:04.792Z,117.1
2017-08-15T05:17:03.752Z,117.5
2017-08-15T05:18:03.329Z,117.7
2017-08-15T05:19:02.289Z,117.6
2017-08-15T05:20:01.475Z,117.6
2017-08-15T05:21:00.668Z,118
2017-08-15T05:21:31.046Z,118
2017-08-15T05:22:01.448Z,117.9
2017-08-15T05:22:31.830Z,117.9
2017-08-15T05:23:02.220Z,117.9
2017-08-15T05:23:32.597Z,117.9
2017-08-15T05:24:57.452Z,118.7
2017-08-15T05:25:56.564Z,118.6
2017-08-15T05:26:56.013Z,118.6
2017-08-15T05:27:55.201Z,118.7
2017-08-15T05:28:54.159Z,118.6
2017-08-15T05:29:53.736Z,118.7
2017-08-15T05:30:52.696Z,118.8
2017-08-15T05:31:51.877Z,-5.6
2017-08-15T05:32:51.455Z,-5.8
2017-08-15T05:33:50.640Z,-5.9
2017-08-15T05:34:21.007Z,-5.9
2017-08-15T05:34:51.663Z,118.7
2017-08-15T05:35:22.027Z,118.7
2017-08-15T05:36:47.910Z,118.6
2017-08-15T05:37:46.988Z,118.3
2017-08-15T05:38:46.680Z,118.1
2017-08-15T05:39:45.872Z,118.1
2017-08-15T05:40:45.069Z,118.2
2017-08-15T05:41:44.131Z,118
2017-08-15T05:42:43.321Z,118.1
2017-08-15T05:43:42.517Z,118.5
2017-08-15T05:44:41.585Z,118.6
2017-08-15T05:45:40.779Z,118.4
2017-08-15T05:46:40.335Z,118.5
2017-08-15T05:47:39.272Z,118.4
2017-08-15T05:48:38.602Z,118.5
2017-08-15T05:49:37.783Z,118.9
2017-08-15T05:50:36.985Z,-5.7
2017-08-15T05:52:35.473Z,118.8
2017-08-15T05:53:34.541Z,118.9
2017-08-15T05:54:33.726Z,-5.6
2017-08-15T05:55:32.909Z,-5.2
2017-08-15T05:56:31.973Z,-5.3
2017-08-15T05:57:31.552Z,-5.3
2017-08-15T05:58:30.636Z,-5
2017-08-15T05:59:29.698Z,-5
2017-08-15T06:00:28.781Z,-4.9
2017-08-15T06:01:28.359Z,-5.2
2017-08-15T06:02:27.564Z,-5.3
2017-08-15T06:03:26.629Z,-5.5
2017-08-15T06:04:25.818Z,-5.8
2017-08-15T06:05:25.012Z,-5.9
2017-08-15T06:06:24.001Z,-5.8
2017-08-15T06:07:23.469Z,118.2
2017-08-15T06:08:22.645Z,118.2
2017-08-15T06:09:21.838Z,118.5
2017-08-15T06:10:20.890Z,117.9
2017-08-15T06:11:20.454Z,117.4
2017-08-15T06:12:19.646Z,116.4
2017-08-15T06:13:18.815Z,117.1
2017-08-15T06:14:18.005Z,116.9
2017-08-15T06:14:48.499Z,116.9
2017-08-15T06:15:18.747Z,117.2
2017-08-15T06:16:16.418Z,117
2017-08-15T06:17:15.366Z,117.1
2017-08-15T06:18:14.844Z,116.3
2017-08-15T06:19:14.037Z,115.7
2017-08-15T06:20:13.225Z,117.1
2017-08-15T06:21:12.807Z,117.3
2017-08-15T06:22:11.859Z,117.3
2017-08-15T06:23:10.933Z,117.3
2017-08-15T06:24:10.508Z,117.3
2017-08-15T06:25:09.461Z,117.3
2017-08-15T06:26:08.802Z,118.4
2017-08-15T06:27:07.745Z,117.6
2017-08-15T06:28:07.427Z,117.3
2017-08-15T06:29:06.488Z,115.8
2017-08-15T06:29:36.998Z,115.8
2017-08-15T06:31:04.756Z,115.7
2017-08-15T06:32:03.956Z,113.9
2017-08-15T06:33:03.136Z,111.6
2017-08-15T06:34:02.701Z,111
2017-08-15T06:35:01.883Z,110.5
2017-08-15T06:36:00.959Z,111.2
2017-08-15T06:37:00.448Z,110
2017-08-15T06:37:59.652Z,110.6
2017-08-15T06:38:58.710Z,110.6
2017-08-15T06:39:58.164Z,107.4
2017-08-15T06:40:57.345Z,108.5
2017-08-15T06:41:56.535Z,109.2
2017-08-15T06:42:55.600Z,108.4
2017-08-15T06:43:55.177Z,108.3
2017-08-15T06:44:54.247Z,109.1
2017-08-15T06:45:53.432Z,108.6
2017-08-15T06:46:52.628Z,108.7
2017-08-15T06:47:51.678Z,108.2
2017-08-15T06:48:51.252Z,108.2
2017-08-15T06:49:50.707Z,108.5
2017-08-15T06:50:49.642Z,107.6
2017-08-15T06:51:48.713Z,107.4
2017-08-15T06:52:48.287Z,107.8
2017-08-15T06:53:47.369Z,107.5
2017-08-15T06:54:46.810Z,107.2
2017-08-15T06:55:46.004Z,107.7
2017-08-15T06:56:45.578Z,107.6
2017-08-15T06:57:44.754Z,106.9
2017-08-15T06:58:43.953Z,106.8
2017-08-15T06:59:43.151Z,106.3
2017-08-15T07:00:42.335Z,106.4
2017-08-15T07:01:41.792Z,106.5
2017-08-15T07:02:41.134Z,106.3
2017-08-15T07:03:40.330Z,106.5
2017-08-15T07:04:39.519Z,105.4
2017-08-15T07:05:38.707Z,105.1
2017-08-15T07:06:37.884Z,101.4
2017-08-15T07:07:37.083Z,103.3
2017-08-15T07:08:36.542Z,103.5
2017-08-15T07:09:35.738Z,102.2
2017-08-15T07:10:34.916Z,103.8
2017-08-15T07:11:34.606Z,104.2
2017-08-15T07:12:33.806Z,104.2
2017-08-15T07:13:32.877Z,103.6
2017-08-15T07:14:32.060Z,103.2
2017-08-15T07:15:31.136Z,103.1
2017-08-15T07:16:30.712Z,102.9
2017-08-15T07:17:29.792Z,103.4
2017-08-15T07:18:29.355Z,102.9
2017-08-15T07:19:28.543Z,103.7
2017-08-15T07:19:59.049Z,103.7
2017-08-15T07:20:29.422Z,103.3
2017-08-15T07:20:59.914Z,103.3
2017-08-15T07:21:30.076Z,103.1
2017-08-15T07:22:00.452Z,103.1
2017-08-15T07:22:30.840Z,102.2
2017-08-15T07:23:01.117Z,102.2
2017-08-15T07:23:31.402Z,102.3
2017-08-15T07:24:01.885Z,102.3
2017-08-15T07:25:24.012Z,100.4
2017-08-15T07:26:23.699Z,100.8
2017-08-15T07:27:22.773Z,101.3
2017-08-15T07:28:21.957Z,101.6
2017-08-15T07:29:21.521Z,102.3
2017-08-15T07:30:20.763Z,101.9
2017-08-15T07:31:19.952Z,101.4
2017-08-15T07:32:19.031Z,100.8
2017-08-15T07:33:18.599Z,98.6
2017-08-15T07:33:49.093Z,98.6
2017-08-15T07:34:19.588Z,98.4
2017-08-15T07:35:17.264Z,99
2017-08-15T07:36:16.452Z,97.1
2017-08-15T07:37:15.512Z,96.1
2017-08-15T07:38:15.105Z,95.8
2017-08-15T07:39:14.167Z,96.1
2017-08-15T07:40:13.236Z,96.2
2017-08-15T07:42:12.210Z,96.1
2017-08-15T07:43:11.172Z,96.3
2017-08-15T07:44:10.746Z,95.7
2017-08-15T07:46:09.205Z,96.6
2017-08-15T07:47:08.671Z,95.9
2017-08-15T07:48:07.863Z,96.3
2017-08-15T07:49:07.048Z,95.9
2017-08-15T07:51:05.511Z,96.5
2017-08-15T07:51:36.022Z,96.5
2017-08-15T07:52:06.403Z,95
2017-08-15T07:52:36.783Z,95
2017-08-15T07:54:03.791Z,96.4
2017-08-15T07:55:03.010Z,95.7
2017-08-15T07:56:01.947Z,94.2
2017-08-15T07:57:01.512Z,94.4
2017-08-15T07:58:00.705Z,93.4
2017-08-15T07:59:00.177Z,91.6
2017-08-15T07:59:59.370Z,91.4
2017-08-15T08:00:58.563Z,93
2017-08-15T08:01:58.161Z,91.5
2017-08-15T08:02:57.115Z,92.7
2017-08-15T08:03:56.810Z,93.9
2017-08-15T08:04:55.772Z,94.6
2017-08-15T08:05:55.473Z,92.3
2017-08-15T08:06:54.421Z,92.5
2017-08-15T08:07:53.870Z,94.7
2017-08-15T08:08:53.075Z,95.3
2017-08-15T08:09:52.642Z,94
2017-08-15T08:10:51.702Z,95.6
2017-08-15T08:11:51.155Z,94.9
2017-08-15T08:12:50.611Z,90.9
2017-08-15T08:13:49.562Z,91.7
2017-08-15T08:14:49.244Z,91.9
2017-08-15T08:15:48.434Z,92
2017-08-15T08:16:47.498Z,91.7
2017-08-15T08:17:47.094Z,91.4
2017-08-15T08:18:46.287Z,89.9
2017-08-15T08:19:45.469Z,90.1
2017-08-15T08:20:45.147Z,89.4
2017-08-15T08:21:44.209Z,88.2
2017-08-15T08:22:43.387Z,89.6
2017-08-15T08:23:43.069Z,89.4
2017-08-15T08:24:42.267Z,88.1
2017-08-15T08:25:41.465Z,88.5
2017-08-15T08:26:40.675Z,91.1
2017-08-15T08:27:40.254Z,90.5
2017-08-15T08:28:39.323Z,90.6
2017-08-15T08:29:09.824Z,90.6
2017-08-15T08:29:40.320Z,89.9
2017-08-15T08:30:37.996Z,92.1
2017-08-15T08:31:37.694Z,90.5
2017-08-15T08:32:36.886Z,90.5
2017-08-15T08:33:36.089Z,89.4
2017-08-15T08:34:35.277Z,89
2017-08-15T08:35:34.837Z,90.8
2017-08-15T08:36:34.026Z,90
2017-08-15T08:37:33.601Z,90.1
2017-08-15T08:38:32.777Z,90
2017-08-15T08:39:31.971Z,90.4
2017-08-15T08:40:31.690Z,91.2
2017-08-15T08:41:30.880Z,92.8
2017-08-15T08:42:29.949Z,92.9
2017-08-15T08:43:29.520Z,91.2
2017-08-15T08:44:28.972Z,89.2
2017-08-15T08:45:28.414Z,87.3
2017-08-15T08:46:27.606Z,85.9
2017-08-15T08:47:26.817Z,86.6
2017-08-15T08:48:26.007Z,86.3
2017-08-15T08:48:56.492Z,86.3
2017-08-15T08:49:26.760Z,86
2017-08-15T08:50:24.831Z,86.7
2017-08-15T08:51:24.413Z,85.9
2017-08-15T08:52:23.472Z,85.9
2017-08-15T08:54:22.441Z,84.2
2017-08-15T08:55:21.386Z,86.4
2017-08-15T08:56:20.960Z,85.3
2017-08-15T08:57:20.547Z,86
2017-08-15T08:58:19.729Z,85.4
2017-08-15T08:58:50.222Z,85.4
2017-08-15T08:59:20.600Z,86.2
2017-08-15T08:59:50.979Z,86.2
2017-08-15T09:00:21.354Z,83.7
2017-08-15T09:00:51.858Z,83.7
2017-08-15T09:02:17.104Z,82
2017-08-15T09:03:16.581Z,81.5
2017-08-15T09:04:15.645Z,81.2
2017-08-15T09:05:15.095Z,80.1
2017-08-15T09:06:14.281Z,82.6
2017-08-15T09:07:13.854Z,81.3
2017-08-15T09:08:13.318Z,81.3
2017-08-15T09:09:12.785Z,82.6
2017-08-15T09:10:11.976Z,80.8
2017-08-15T09:11:11.445Z,82
2017-08-15T09:12:10.530Z,81.8
2017-08-15T09:13:10.110Z,80.8
2017-08-15T09:14:09.302Z,81.1
2017-08-15T09:15:08.866Z,81.5
2017-08-15T09:16:08.048Z,82.1
2017-08-15T09:17:07.634Z,80.8
2017-08-15T09:18:06.826Z,80.5
2017-08-15T09:19:06.392Z,81.4
2017-08-15T09:20:05.479Z,80.8
2017-08-15T09:21:05.191Z,80.4
2017-08-15T09:22:04.384Z,79.7
2017-08-15T09:24:02.838Z,80.1
2017-08-15T09:25:02.291Z,78.8
2017-08-15T09:26:01.928Z,79.9
2017-08-15T09:27:01.113Z,80
2017-08-15T09:28:00.185Z,79.8
2017-08-15T09:28:59.766Z,77.4
2017-08-15T09:29:59.477Z,78
2017-08-15T09:30:58.539Z,78.6
2017-08-15T09:31:58.232Z,78.8
2017-08-15T09:32:57.414Z,79.9
2017-08-15T09:33:56.992Z,79.6
2017-08-15T09:34:56.178Z,79.7
2017-08-15T09:35:55.361Z,78.6
2017-08-15T09:36:54.943Z,80
2017-08-15T09:37:54.133Z,76.8
2017-08-15T09:38:53.825Z,76.9
2017-08-15T09:39:53.024Z,77
2017-08-15T09:40:23.526Z,77
2017-08-15T09:40:54.052Z,76.8
2017-08-15T09:41:24.564Z,76.8
2017-08-15T09:41:55.057Z,77.8
2017-08-15T09:42:51.104Z,77.2
2017-08-15T09:43:50.807Z,76.1
2017-08-15T09:44:49.869Z,76.2
2017-08-15T09:45:49.444Z,77.6
2017-08-15T09:46:48.627Z,78.5
2017-08-15T09:47:48.091Z,78.5
2017-08-15T09:48:47.671Z,78.3
2017-08-15T09:49:46.867Z,80.4
2017-08-15T09:50:46.438Z,78.1
2017-08-15T09:51:45.510Z,78.2
2017-08-15T09:52:15.887Z,78.2
2017-08-15T09:52:46.399Z,78.3
2017-08-15T09:53:16.669Z,78.3
2017-08-15T09:54:43.803Z,78.6
2017-08-15T09:55:42.979Z,77.2
2017-08-15T09:56:42.675Z,76.4
2017-08-15T09:57:41.859Z,76.9
2017-08-15T09:58:41.308Z,78.9
2017-08-15T09:59:40.994Z,78.4
2017-08-15T10:00:40.074Z,78.3
2017-08-15T10:01:39.357Z,76.3
2017-08-15T10:02:38.927Z,76.3
2017-08-15T10:03:38.202Z,76.6
2017-08-15T10:04:37.906Z,77.9
2017-08-15T10:05:37.094Z,77.6
2017-08-15T10:06:36.778Z,76.1
2017-08-15T10:07:35.845Z,75.8
2017-08-15T10:08:35.412Z,74.3
2017-08-15T10:09:34.887Z,74.1
2017-08-15T10:10:34.334Z,73.1
2017-08-15T10:11:33.396Z,70.5
2017-08-15T10:12:33.079Z,72.4
2017-08-15T10:13:03.455Z,72.4
2017-08-15T10:13:33.827Z,70.2
2017-08-15T10:14:31.887Z,71.3
2017-08-15T10:15:31.067Z,70.7
2017-08-15T10:16:30.766Z,70.6
2017-08-15T10:17:29.828Z,68.6
2017-08-15T10:18:29.294Z,68.4
2017-08-15T10:19:28.631Z,70
2017-08-15T10:20:28.326Z,69.3
2017-08-15T10:21:27.688Z,69.7
2017-08-15T10:22:26.763Z,70.8
2017-08-15T10:23:26.217Z,69
2017-08-15T10:23:56.497Z,69
2017-08-15T10:24:27.010Z,70.8
2017-08-15T10:24:57.520Z,70.8
2017-08-15T10:25:28.007Z,70
2017-08-15T10:26:24.686Z,70.2
2017-08-15T10:27:24.266Z,70.1
2017-08-15T10:28:23.738Z,71.3
2017-08-15T10:29:22.798Z,68.5
2017-08-15T10:30:22.504Z,66.3
2017-08-15T10:31:21.691Z,67.4
2017-08-15T10:32:21.394Z,67.3
2017-08-15T10:33:20.572Z,67.2
2017-08-15T10:34:20.028Z,68.5
2017-08-15T10:35:19.725Z,68.2
2017-08-15T10:36:18.892Z,68.8
2017-08-15T10:37:18.462Z,68.9
2017-08-15T10:38:17.526Z,70.4
2017-08-15T10:39:17.224Z,70.1
2017-08-15T10:41:16.074Z,70.2
2017-08-15T10:42:15.265Z,71.1
2017-08-15T10:43:14.832Z,69.8
2017-08-15T10:44:14.546Z,67.2
2017-08-15T10:45:13.744Z,68
2017-08-15T10:46:12.937Z,66.8
2017-08-15T10:47:12.507Z,66.7
2017-08-15T10:48:12.092Z,68.1
2017-08-15T10:49:11.174Z,65.6
2017-08-15T10:49:41.554Z,65.6
2017-08-15T10:50:12.061Z,65.6
2017-08-15T10:51:10.386Z,66.2
2017-08-15T10:52:09.841Z,63.8
2017-08-15T10:53:09.457Z,65.3
2017-08-15T10:54:08.655Z,66.1
2017-08-15T10:55:08.112Z,68.1
2017-08-15T10:56:07.198Z,67.3
2017-08-15T10:58:06.538Z,67.9
2017-08-15T10:59:05.640Z,69.1
2017-08-15T11:00:05.341Z,65.8
2017-08-15T11:01:04.409Z,64.2
2017-08-15T11:02:04.096Z,62.5
2017-08-15T11:02:34.486Z,62.5
2017-08-15T11:03:04.750Z,63.1
2017-08-15T11:04:02.811Z,63.7
2017-08-15T11:05:02.420Z,64
2017-08-15T11:06:01.879Z,63.8
2017-08-15T11:07:01.448Z,64.7
2017-08-15T11:08:00.925Z,64.1
2017-08-15T11:09:00.254Z,62.5
2017-08-15T11:09:59.702Z,63.2
2017-08-15T11:10:59.385Z,63.3
2017-08-15T11:11:58.457Z,61.3
2017-08-15T11:12:57.923Z,62.4
2017-08-15T11:13:57.497Z,62.6
2017-08-15T11:14:57.219Z,62.5
2017-08-15T11:15:56.291Z,62.3
2017-08-15T11:16:55.867Z,62
2017-08-15T11:17:55.438Z,61.6
2017-08-15T11:18:54.531Z,62.6
2017-08-15T11:19:54.231Z,62.9
2017-08-15T11:20:24.612Z,62.9
2017-08-15T11:20:54.991Z,61.4
2017-08-15T11:21:25.373Z,61.4
2017-08-15T11:21:55.784Z,63
2017-08-15T11:22:26.240Z,63
2017-08-15T11:22:56.742Z,64
2017-08-15T11:23:27.248Z,64
2017-08-15T11:24:51.609Z,63.8
2017-08-15T11:25:50.802Z,60.6
2017-08-15T11:26:50.372Z,61.5
2017-08-15T11:27:50.060Z,63.4
2017-08-15T11:28:49.523Z,64
2017-08-15T11:29:48.712Z,64.1
2017-08-15T11:30:48.170Z,61.8
2017-08-15T11:31:47.755Z,59.9
2017-08-15T11:32:47.467Z,61.2
2017-08-15T11:33:17.843Z,61.2
2017-08-15T11:33:48.234Z,61.3
2017-08-15T11:34:18.751Z,61.3
2017-08-15T11:34:49.115Z,60
2017-08-15T11:35:19.506Z,60
2017-08-15T11:36:44.927Z,59.5
2017-08-15T11:37:44.640Z,59.1
2017-08-15T11:38:44.326Z,59.1
2017-08-15T11:39:43.513Z,59.5
2017-08-15T11:40:43.076Z,60.5
2017-08-15T11:42:42.049Z,61.2
2017-08-15T11:43:41.629Z,60.7
2017-08-15T11:44:41.087Z,61.6
2017-08-15T11:45:40.692Z,62.9
2017-08-15T11:46:39.767Z,60.8
2017-08-15T11:47:39.224Z,59.4
2017-08-15T11:48:38.808Z,60.5
2017-08-15T11:49:38.482Z,60
2017-08-15T11:50:37.808Z,59.1
2017-08-15T11:51:37.148Z,59
2017-08-15T11:52:36.879Z,59.5
2017-08-15T11:53:36.216Z,59.3
2017-08-15T11:54:36.057Z,59.7
2017-08-15T11:55:35.520Z,59.3
2017-08-15T11:56:34.711Z,59.5
2017-08-15T11:57:34.160Z,59.7
2017-08-15T11:58:33.728Z,59.7
2017-08-15T12:00:32.799Z,58.8
2017-08-15T12:01:32.487Z,58.4
2017-08-15T12:02:32.053Z,58.3
2017-08-15T12:03:31.624Z,58
2017-08-15T12:04:30.816Z,57.4
2017-08-15T12:05:30.398Z,57.9
2017-08-15T12:06:30.084Z,57.7
2017-08-15T12:07:29.642Z,58.7
2017-08-15T12:08:28.838Z,58.9
2017-08-15T12:09:28.165Z,58.5
2017-08-15T12:10:27.852Z,57
2017-08-15T12:11:27.203Z,56.5
2017-08-15T12:12:26.898Z,56.9
2017-08-15T12:13:26.343Z,57.5
2017-08-15T12:14:26.029Z,56.5
2017-08-15T12:15:25.490Z,57.3
2017-08-15T12:15:55.986Z,57.3
2017-08-15T12:18:23.903Z,56.9
2017-08-15T12:19:23.465Z,56.7
2017-08-15T12:20:22.949Z,57.1
2017-08-15T12:21:22.659Z,55.6
2017-08-15T12:22:22.247Z,56.5
2017-08-15T12:23:21.426Z,56.8
2017-08-15T12:24:21.117Z,55
2017-08-15T12:25:20.680Z,55
2017-08-15T12:26:20.384Z,56.4
2017-08-15T12:27:19.957Z,57.9
2017-08-15T12:28:19.139Z,56.9
2017-08-15T12:29:18.723Z,57
2017-08-15T12:30:18.576Z,56.7
2017-08-15T12:31:17.640Z,55.3
2017-08-15T12:32:17.364Z,54.8
2017-08-15T12:32:47.865Z,54.8